createdAt,value
2024-03-31T00:00:01.233Z,16.43
2024-03-31T00:01:02.428Z,16.43
2024-03-31T00:02:00.369Z,18.18
2024-03-31T00:03:00.302Z,18.18
2024-03-31T00:04:00.306Z,18.18
2024-03-31T00:05:00.326Z,18.02
2024-03-31T00:06:00.302Z,18.02
2024-03-31T00:07:02.776Z,18.02
2024-03-31T00:08:00.303Z,17.11
2024-03-31T00:09:00.312Z,17.11
2024-03-31T00:10:00.671Z,17.11
2024-03-31T00:11:00.826Z,18.03
2024-03-31T00:12:00.302Z,18.03
2024-03-31T00:13:00.334Z,18.03
2024-03-31T00:14:00.294Z,17.59
2024-03-31T00:15:00.405Z,17.59
2024-03-31T00:16:00.366Z,17.59
2024-03-31T00:17:00.366Z,14.94
2024-03-31T00:18:00.294Z,14.94
2024-03-31T00:19:00.297Z,14.94
2024-03-31T00:20:00.402Z,14.94
2024-03-31T00:21:00.298Z,14.94
2024-03-31T00:22:00.350Z,14.94
2024-03-31T00:23:00.304Z,14.65
2024-03-31T00:24:00.291Z,14.65
2024-03-31T00:25:00.357Z,14.65
2024-03-31T00:26:00.498Z,12.70
2024-03-31T00:27:00.359Z,12.70
2024-03-31T00:28:00.307Z,12.70
2024-03-31T00:29:00.370Z,13.21
2024-03-31T00:30:00.277Z,13.21
2024-03-31T00:31:00.294Z,13.21
2024-03-31T00:32:00.299Z,13.89
2024-03-31T00:33:00.380Z,13.89
2024-03-31T00:34:00.312Z,13.89
2024-03-31T00:35:00.314Z,12.99
2024-03-31T00:36:00.293Z,12.99
2024-03-31T00:37:00.297Z,12.99
2024-03-31T00:38:00.395Z,11.23
2024-03-31T00:39:00.311Z,11.23
2024-03-31T00:40:00.358Z,11.23
2024-03-31T00:41:00.298Z,12.17
2024-03-31T00:42:00.295Z,12.17
2024-03-31T00:43:00.330Z,12.17
2024-03-31T00:44:00.317Z,12.37
2024-03-31T00:45:00.292Z,12.37
2024-03-31T00:46:00.291Z,12.37
2024-03-31T00:47:00.310Z,12.17
2024-03-31T00:48:00.295Z,12.17
2024-03-31T00:49:00.428Z,12.17
2024-03-31T00:50:00.275Z,10.49
2024-03-31T00:51:00.305Z,10.49
2024-03-31T00:52:00.295Z,10.49
2024-03-31T00:53:00.322Z,10.72
2024-03-31T00:54:00.478Z,10.72
2024-03-31T00:55:00.302Z,10.72
2024-03-31T00:56:00.312Z,10.75
2024-03-31T00:57:00.303Z,10.75
2024-03-31T00:58:00.286Z,10.75
2024-03-31T00:59:00.566Z,8.98
2024-03-31T01:00:01.268Z,8.98
2024-03-31T01:01:00.316Z,8.98
2024-03-31T01:02:00.328Z,8.31
2024-03-31T01:03:00.359Z,8.31
2024-03-31T01:04:00.360Z,8.31
2024-03-31T01:05:00.362Z,8.81
2024-03-31T01:06:06.432Z,8.81
2024-03-31T01:07:00.355Z,8.81
2024-03-31T01:08:00.546Z,8.47
2024-03-31T01:09:00.397Z,8.47
2024-03-31T01:10:00.474Z,8.47
2024-03-31T01:11:00.369Z,7.33
2024-03-31T01:12:00.302Z,7.33
2024-03-31T01:13:00.329Z,7.33
2024-03-31T01:14:01.714Z,8.99
2024-03-31T01:15:00.332Z,8.99
2024-03-31T01:16:00.299Z,8.99
2024-03-31T01:17:00.357Z,8.28
2024-03-31T01:18:00.301Z,8.28
2024-03-31T01:19:00.284Z,8.28
2024-03-31T01:20:00.555Z,8.83
2024-03-31T01:21:01.308Z,8.83
2024-03-31T01:22:00.300Z,8.83
2024-03-31T01:23:02.385Z,11.29
2024-03-31T01:24:00.339Z,11.29
2024-03-31T01:25:00.421Z,11.29
2024-03-31T01:26:00.838Z,8.43
2024-03-31T01:27:00.308Z,8.43
2024-03-31T01:28:00.306Z,8.43
2024-03-31T01:29:00.300Z,8.50
2024-03-31T01:30:00.326Z,8.50
2024-03-31T01:31:00.440Z,8.50
2024-03-31T01:32:00.296Z,8.99
2024-03-31T01:33:00.413Z,8.99
2024-03-31T01:34:00.403Z,8.99
2024-03-31T01:35:00.311Z,9.22
2024-03-31T01:36:00.538Z,9.22
2024-03-31T01:37:00.369Z,9.22
2024-03-31T01:38:00.307Z,8.89
2024-03-31T01:39:05.538Z,8.89
2024-03-31T01:40:00.296Z,8.89
2024-03-31T01:41:00.332Z,9.09
2024-03-31T01:42:00.338Z,9.09
2024-03-31T01:43:00.304Z,9.09
2024-03-31T01:44:00.303Z,10.96
2024-03-31T01:45:00.279Z,10.96
2024-03-31T01:46:00.314Z,10.96
2024-03-31T01:47:00.308Z,9.16
2024-03-31T01:48:00.315Z,9.16
2024-03-31T01:49:00.300Z,9.16
2024-03-31T01:50:00.293Z,11.38
2024-03-31T01:51:00.300Z,11.38
2024-03-31T01:52:00.298Z,11.38
2024-03-31T01:53:00.377Z,9.95
2024-03-31T01:54:00.539Z,9.95
2024-03-31T01:55:00.324Z,9.95
2024-03-31T01:56:00.326Z,11.12
2024-03-31T01:57:00.343Z,11.12
2024-03-31T01:58:00.357Z,11.12
2024-03-31T01:59:01.098Z,8.80
2024-03-31T02:00:00.303Z,8.80
2024-03-31T02:01:00.366Z,8.80
2024-03-31T02:02:00.302Z,11.78
2024-03-31T02:03:00.987Z,11.78
2024-03-31T02:04:00.296Z,11.78
2024-03-31T02:05:00.318Z,10.39
2024-03-31T02:06:06.577Z,10.39
2024-03-31T02:07:00.326Z,10.39
2024-03-31T02:08:00.320Z,12.91
2024-03-31T02:09:00.322Z,12.91
2024-03-31T02:10:00.315Z,12.91
2024-03-31T02:11:00.305Z,18.62
2024-03-31T02:12:00.316Z,18.62
2024-03-31T02:13:00.288Z,18.62
2024-03-31T02:14:00.333Z,13.20
2024-03-31T02:15:00.376Z,13.20
2024-03-31T02:16:00.277Z,13.20
2024-03-31T02:17:00.293Z,13.22
2024-03-31T02:18:00.285Z,13.22
2024-03-31T02:19:00.307Z,13.22
2024-03-31T02:20:00.300Z,15.36
2024-03-31T02:21:01.433Z,15.36
2024-03-31T02:22:00.306Z,15.36
2024-03-31T02:23:00.276Z,15.24
2024-03-31T02:24:00.289Z,15.24
2024-03-31T02:25:00.419Z,15.24
2024-03-31T02:26:00.687Z,15.24
2024-03-31T02:27:00.471Z,15.24
2024-03-31T02:28:00.302Z,15.24
2024-03-31T02:29:00.372Z,12.31
2024-03-31T02:30:00.315Z,12.31
2024-03-31T02:31:00.387Z,12.31
2024-03-31T02:32:00.438Z,15.34
2024-03-31T02:33:00.322Z,15.34
2024-03-31T02:34:00.309Z,15.34
2024-03-31T02:35:00.294Z,15.34
2024-03-31T02:36:00.325Z,15.34
2024-03-31T02:37:00.322Z,15.34
2024-03-31T02:38:00.357Z,15.08
2024-03-31T02:39:00.288Z,15.08
2024-03-31T02:40:00.318Z,15.08
2024-03-31T02:41:00.313Z,14.77
2024-03-31T02:42:00.306Z,14.77
2024-03-31T02:43:00.369Z,14.77
2024-03-31T02:44:00.294Z,13.92
2024-03-31T02:45:00.356Z,13.92
2024-03-31T02:46:00.297Z,13.92
2024-03-31T02:47:00.283Z,15.11
2024-03-31T02:48:00.297Z,15.11
2024-03-31T02:49:00.309Z,15.11
2024-03-31T02:50:00.311Z,14.55
2024-03-31T02:51:00.294Z,14.55
2024-03-31T02:52:00.296Z,14.55
2024-03-31T02:53:00.300Z,15.54
2024-03-31T02:54:00.323Z,15.54
2024-03-31T02:55:00.300Z,15.54
2024-03-31T02:56:00.304Z,16.19
2024-03-31T02:57:00.304Z,16.19
2024-03-31T02:58:00.341Z,16.19
2024-03-31T02:59:00.295Z,16.22
2024-03-31T03:00:00.331Z,16.22
2024-03-31T03:01:03.008Z,16.22
2024-03-31T03:02:00.332Z,15.40
2024-03-31T03:03:00.360Z,15.40
2024-03-31T03:04:00.306Z,15.40
2024-03-31T03:05:00.324Z,14.76
2024-03-31T03:06:00.322Z,14.76
2024-03-31T03:07:00.327Z,14.76
2024-03-31T03:08:00.305Z,13.35
2024-03-31T03:09:00.345Z,13.35
2024-03-31T03:10:00.293Z,13.35
2024-03-31T03:11:00.300Z,13.35
2024-03-31T03:12:00.294Z,13.35
2024-03-31T03:13:00.336Z,13.35
2024-03-31T03:14:00.313Z,13.41
2024-03-31T03:15:00.369Z,13.41
2024-03-31T03:16:01.695Z,13.41
2024-03-31T03:17:00.294Z,14.95
2024-03-31T03:18:00.294Z,14.95
2024-03-31T03:19:00.358Z,14.95
2024-03-31T03:20:00.289Z,15.16
2024-03-31T03:21:00.302Z,15.16
2024-03-31T03:22:00.304Z,15.16
2024-03-31T03:23:00.306Z,11.38
2024-03-31T03:24:00.472Z,11.38
2024-03-31T03:25:00.399Z,11.38
2024-03-31T03:26:00.332Z,12.06
2024-03-31T03:27:00.323Z,12.06
2024-03-31T03:28:00.381Z,12.06
2024-03-31T03:29:00.428Z,14.06
2024-03-31T03:30:00.291Z,14.06
2024-03-31T03:31:00.794Z,14.06
2024-03-31T03:32:00.283Z,13.62
2024-03-31T03:33:00.354Z,13.62
2024-03-31T03:34:00.306Z,13.62
2024-03-31T03:35:00.319Z,13.62
2024-03-31T03:36:02.983Z,13.62
2024-03-31T03:37:00.307Z,13.62
2024-03-31T03:38:00.301Z,16.00
2024-03-31T03:39:00.303Z,16.00
2024-03-31T03:40:00.304Z,16.00
2024-03-31T03:41:00.297Z,15.22
2024-03-31T03:42:00.298Z,15.22
2024-03-31T03:43:00.291Z,15.22
2024-03-31T03:44:00.354Z,13.11
2024-03-31T03:45:00.323Z,13.11
2024-03-31T03:46:00.721Z,13.11
2024-03-31T03:47:00.302Z,13.16
2024-03-31T03:48:00.288Z,13.16
2024-03-31T03:49:00.312Z,13.16
2024-03-31T03:50:00.297Z,13.80
2024-03-31T03:51:00.819Z,13.80
2024-03-31T03:52:00.316Z,13.80
2024-03-31T03:53:00.280Z,12.74
2024-03-31T03:54:00.295Z,12.74
2024-03-31T03:55:00.279Z,12.74
2024-03-31T03:56:00.310Z,14.55
2024-03-31T03:57:00.411Z,14.55
2024-03-31T03:58:00.327Z,14.55
2024-03-31T03:59:00.317Z,11.67
2024-03-31T04:00:00.295Z,11.67
2024-03-31T04:01:00.318Z,11.67
2024-03-31T04:02:00.300Z,14.60
2024-03-31T04:03:00.301Z,14.60
2024-03-31T04:04:00.294Z,14.60
2024-03-31T04:05:00.266Z,14.39
2024-03-31T04:06:00.363Z,14.39
2024-03-31T04:07:00.299Z,14.39
2024-03-31T04:08:00.369Z,12.07
2024-03-31T04:09:00.301Z,12.07
2024-03-31T04:10:00.297Z,12.07
2024-03-31T04:11:00.307Z,12.07
2024-03-31T04:12:00.290Z,12.07
2024-03-31T04:13:00.399Z,12.07
2024-03-31T04:14:00.340Z,12.02
2024-03-31T04:15:00.906Z,12.02
2024-03-31T04:16:00.658Z,12.02
2024-03-31T04:17:00.437Z,14.51
2024-03-31T04:18:00.368Z,14.51
2024-03-31T04:19:00.311Z,14.51
2024-03-31T04:20:00.575Z,12.65
2024-03-31T04:21:00.299Z,12.65
2024-03-31T04:22:00.308Z,12.65
2024-03-31T04:23:00.302Z,14.41
2024-03-31T04:24:00.338Z,14.41
2024-03-31T04:25:00.361Z,14.41
2024-03-31T04:26:00.326Z,14.41
2024-03-31T04:27:00.304Z,14.41
2024-03-31T04:28:00.510Z,14.41
2024-03-31T04:29:00.294Z,11.52
2024-03-31T04:30:00.302Z,11.52
2024-03-31T04:31:02.021Z,11.52
2024-03-31T04:32:00.303Z,11.52
2024-03-31T04:33:00.295Z,11.52
2024-03-31T04:34:00.335Z,11.52
2024-03-31T04:35:00.289Z,14.33
2024-03-31T04:36:00.363Z,14.33
2024-03-31T04:37:00.704Z,14.33
2024-03-31T04:38:00.326Z,14.01
2024-03-31T04:39:00.293Z,14.01
2024-03-31T04:40:00.299Z,14.01
2024-03-31T04:41:00.300Z,12.11
2024-03-31T04:42:00.342Z,12.11
2024-03-31T04:43:00.420Z,12.11
2024-03-31T04:44:00.337Z,16.23
2024-03-31T04:45:00.381Z,16.23
2024-03-31T04:46:02.537Z,16.23
2024-03-31T04:47:00.366Z,15.06
2024-03-31T04:48:00.917Z,15.06
2024-03-31T04:49:00.293Z,15.06
2024-03-31T04:50:00.316Z,15.06
2024-03-31T04:51:01.978Z,15.06
2024-03-31T04:52:00.417Z,15.06
2024-03-31T04:53:00.315Z,14.54
2024-03-31T04:54:02.054Z,14.54
2024-03-31T04:55:00.305Z,14.54
2024-03-31T04:56:00.775Z,14.72
2024-03-31T04:57:00.330Z,14.72
2024-03-31T04:58:00.325Z,14.72
2024-03-31T04:59:00.296Z,14.04
2024-03-31T05:00:00.298Z,14.04
2024-03-31T05:01:00.301Z,14.04
2024-03-31T05:02:00.304Z,13.75
2024-03-31T05:03:00.335Z,13.75
2024-03-31T05:04:00.362Z,13.75
2024-03-31T05:05:00.344Z,13.10
2024-03-31T05:06:00.317Z,13.10
2024-03-31T05:07:00.297Z,13.10
2024-03-31T05:08:00.294Z,16.23
2024-03-31T05:09:00.351Z,16.23
2024-03-31T05:10:00.327Z,16.23
2024-03-31T05:11:00.598Z,11.79
2024-03-31T05:12:00.316Z,11.79
2024-03-31T05:13:00.298Z,11.79
2024-03-31T05:14:00.561Z,11.48
2024-03-31T05:15:00.298Z,11.48
2024-03-31T05:16:01.124Z,11.48
2024-03-31T05:17:00.442Z,11.95
2024-03-31T05:18:00.306Z,11.95
2024-03-31T05:19:00.297Z,11.95
2024-03-31T05:20:00.372Z,11.27
2024-03-31T05:21:02.738Z,11.27
2024-03-31T05:22:00.302Z,11.27
2024-03-31T05:23:00.341Z,10.82
2024-03-31T05:24:00.314Z,10.82
2024-03-31T05:25:00.285Z,10.82
2024-03-31T05:26:00.337Z,10.57
2024-03-31T05:27:00.270Z,10.57
2024-03-31T05:28:00.317Z,10.57
2024-03-31T05:29:00.315Z,10.30
2024-03-31T05:30:00.314Z,10.30
2024-03-31T05:31:00.322Z,10.30
2024-03-31T05:32:00.293Z,10.38
2024-03-31T05:33:00.376Z,10.38
2024-03-31T05:34:00.333Z,10.38
2024-03-31T05:35:00.304Z,9.40
2024-03-31T05:36:00.436Z,9.40
2024-03-31T05:37:00.293Z,9.40
2024-03-31T05:38:00.312Z,10.02
2024-03-31T05:39:00.431Z,10.02
2024-03-31T05:40:00.332Z,10.02
2024-03-31T05:41:00.449Z,10.61
2024-03-31T05:42:00.295Z,10.61
2024-03-31T05:43:00.297Z,10.61
2024-03-31T05:44:00.307Z,10.30
2024-03-31T05:45:00.364Z,10.30
2024-03-31T05:46:00.284Z,10.30
2024-03-31T05:47:00.296Z,10.30
2024-03-31T05:48:00.836Z,10.30
2024-03-31T05:49:00.488Z,10.30
2024-03-31T05:50:00.317Z,10.30
2024-03-31T05:51:00.451Z,10.30
2024-03-31T05:52:00.349Z,10.30
2024-03-31T05:53:00.467Z,11.92
2024-03-31T05:54:00.324Z,11.92
2024-03-31T05:55:00.303Z,11.92
2024-03-31T05:56:00.292Z,11.13
2024-03-31T05:57:00.314Z,11.13
2024-03-31T05:58:00.408Z,11.13
2024-03-31T05:59:00.304Z,11.70
2024-03-31T06:00:00.299Z,11.70
2024-03-31T06:01:00.309Z,11.70
2024-03-31T06:02:00.332Z,12.85
2024-03-31T06:03:00.319Z,12.85
2024-03-31T06:04:00.297Z,12.85
2024-03-31T06:05:00.317Z,13.16
2024-03-31T06:06:00.299Z,13.16
2024-03-31T06:07:00.304Z,13.16
2024-03-31T06:08:00.329Z,14.59
2024-03-31T06:09:00.366Z,14.59
2024-03-31T06:10:00.297Z,14.59
2024-03-31T06:11:01.495Z,14.41
2024-03-31T06:12:00.301Z,14.41
2024-03-31T06:13:00.405Z,14.41
2024-03-31T06:14:00.301Z,14.53
2024-03-31T06:15:00.299Z,14.53
2024-03-31T06:16:00.292Z,14.53
2024-03-31T06:17:00.301Z,12.97
2024-03-31T06:18:00.312Z,12.97
2024-03-31T06:19:00.370Z,12.97
2024-03-31T06:20:00.442Z,15.19
2024-03-31T06:21:04.825Z,15.19
2024-03-31T06:22:00.295Z,15.19
2024-03-31T06:23:00.300Z,13.49
2024-03-31T06:24:00.338Z,13.49
2024-03-31T06:25:00.301Z,13.49
2024-03-31T06:26:00.629Z,15.46
2024-03-31T06:27:00.288Z,15.46
2024-03-31T06:28:00.294Z,15.46
2024-03-31T06:29:00.380Z,15.21
2024-03-31T06:30:01.070Z,15.21
2024-03-31T06:31:00.319Z,15.21
2024-03-31T06:32:00.315Z,16.39
2024-03-31T06:33:00.303Z,16.39
2024-03-31T06:34:00.287Z,16.39
2024-03-31T06:35:00.409Z,15.57
2024-03-31T06:36:00.347Z,15.57
2024-03-31T06:37:00.317Z,15.57
2024-03-31T06:38:00.302Z,14.76
2024-03-31T06:39:00.322Z,14.76
2024-03-31T06:40:00.315Z,14.76
2024-03-31T06:41:00.453Z,14.98
2024-03-31T06:42:00.300Z,14.98
2024-03-31T06:43:00.347Z,14.98
2024-03-31T06:44:00.302Z,14.28
2024-03-31T06:45:00.598Z,14.28
2024-03-31T06:46:00.344Z,14.28
2024-03-31T06:47:00.307Z,13.32
2024-03-31T06:48:00.337Z,13.32
2024-03-31T06:49:00.308Z,13.32
2024-03-31T06:50:00.306Z,15.38
2024-03-31T06:51:00.334Z,15.38
2024-03-31T06:52:00.303Z,15.38
2024-03-31T06:53:00.311Z,15.22
2024-03-31T06:54:00.317Z,15.22
2024-03-31T06:55:00.292Z,15.22
2024-03-31T06:56:00.301Z,14.57
2024-03-31T06:57:00.367Z,14.57
2024-03-31T06:58:00.370Z,14.57
2024-03-31T06:59:00.317Z,13.29
2024-03-31T07:00:00.297Z,13.29
2024-03-31T07:01:01.291Z,13.29
2024-03-31T07:02:00.502Z,12.71
2024-03-31T07:03:00.317Z,12.71
2024-03-31T07:04:00.296Z,12.71
2024-03-31T07:05:00.328Z,12.86
2024-03-31T07:06:00.309Z,12.86
2024-03-31T07:07:00.302Z,12.86
2024-03-31T07:08:00.363Z,12.95
2024-03-31T07:09:00.851Z,12.95
2024-03-31T07:10:00.298Z,12.95
2024-03-31T07:11:00.303Z,12.48
2024-03-31T07:12:00.318Z,12.48
2024-03-31T07:13:00.301Z,12.48
2024-03-31T07:14:00.380Z,11.95
2024-03-31T07:15:00.325Z,11.95
2024-03-31T07:16:00.299Z,11.95
2024-03-31T07:17:00.297Z,11.83
2024-03-31T07:18:04.718Z,11.83
2024-03-31T07:19:00.424Z,11.83
2024-03-31T07:20:00.669Z,10.45
2024-03-31T07:21:00.539Z,10.45
2024-03-31T07:22:00.292Z,10.45
2024-03-31T07:23:01.218Z,10.45
2024-03-31T07:24:00.305Z,10.45
2024-03-31T07:25:00.372Z,10.45
2024-03-31T07:26:00.296Z,10.33
2024-03-31T07:27:00.329Z,10.33
2024-03-31T07:28:00.425Z,10.33
2024-03-31T07:29:00.327Z,10.72
2024-03-31T07:30:00.344Z,10.72
2024-03-31T07:31:00.329Z,10.72
2024-03-31T07:32:00.330Z,9.53
2024-03-31T07:33:00.519Z,9.53
2024-03-31T07:34:00.312Z,9.53
2024-03-31T07:35:00.319Z,9.59
2024-03-31T07:36:00.359Z,9.59
2024-03-31T07:37:00.346Z,9.59
2024-03-31T07:38:00.359Z,7.82
2024-03-31T07:39:00.313Z,7.82
2024-03-31T07:40:00.312Z,7.82
2024-03-31T07:41:00.911Z,5.36
2024-03-31T07:42:02.631Z,5.36
2024-03-31T07:43:00.371Z,5.36
2024-03-31T07:44:00.373Z,5.59
2024-03-31T07:45:00.311Z,5.59
2024-03-31T07:46:00.292Z,5.59
2024-03-31T07:47:00.298Z,4.01
2024-03-31T07:48:01.881Z,4.01
2024-03-31T07:49:00.440Z,4.01
2024-03-31T07:50:00.358Z,3.98
2024-03-31T07:51:00.301Z,3.98
2024-03-31T07:52:00.297Z,3.98
2024-03-31T07:53:00.305Z,3.89
2024-03-31T07:54:00.300Z,3.89
2024-03-31T07:55:00.305Z,3.89
2024-03-31T07:56:00.896Z,4.38
2024-03-31T07:57:00.365Z,4.38
2024-03-31T07:58:00.323Z,4.38
2024-03-31T07:59:00.329Z,4.32
2024-03-31T08:00:00.418Z,4.32
2024-03-31T08:01:00.442Z,4.32
2024-03-31T08:02:00.289Z,3.59
2024-03-31T08:03:00.339Z,3.59
2024-03-31T08:04:00.301Z,3.59
2024-03-31T08:05:00.380Z,3.86
2024-03-31T08:06:00.316Z,3.86
2024-03-31T08:07:00.300Z,3.86
2024-03-31T08:08:00.297Z,3.86
2024-03-31T08:09:00.323Z,3.86
2024-03-31T08:10:00.364Z,3.86
2024-03-31T08:11:00.342Z,3.86
2024-03-31T08:12:00.300Z,3.86
2024-03-31T08:13:00.319Z,3.86
2024-03-31T08:14:00.338Z,4.48
2024-03-31T08:15:00.835Z,4.48
2024-03-31T08:16:00.302Z,4.48
2024-03-31T08:17:00.315Z,5.49
2024-03-31T08:18:00.375Z,5.49
2024-03-31T08:19:00.308Z,5.49
2024-03-31T08:20:00.304Z,5.82
2024-03-31T08:21:01.388Z,5.82
2024-03-31T08:22:00.779Z,5.82
2024-03-31T08:23:00.323Z,7.51
2024-03-31T08:24:00.412Z,7.51
2024-03-31T08:25:00.350Z,7.51
2024-03-31T08:26:00.300Z,8.48
2024-03-31T08:27:00.301Z,8.48
2024-03-31T08:28:00.299Z,8.48
2024-03-31T08:29:00.318Z,8.70
2024-03-31T08:30:00.278Z,8.70
2024-03-31T08:31:00.306Z,8.70
2024-03-31T08:32:00.309Z,8.70
2024-03-31T08:33:00.303Z,8.70
2024-03-31T08:34:00.310Z,8.70
2024-03-31T08:35:00.448Z,7.53
2024-03-31T08:36:00.350Z,7.53
2024-03-31T08:37:00.323Z,7.53
2024-03-31T08:38:00.362Z,10.69
2024-03-31T08:39:00.396Z,10.69
2024-03-31T08:40:00.325Z,10.69
2024-03-31T08:41:04.854Z,8.77
2024-03-31T08:42:06.906Z,8.77
2024-03-31T08:43:03.949Z,8.77
2024-03-31T08:44:02.199Z,8.86
2024-03-31T08:45:00.799Z,8.86
2024-03-31T08:46:01.272Z,8.86
2024-03-31T08:47:01.560Z,9.59
2024-03-31T08:48:00.471Z,9.59
2024-03-31T08:49:00.311Z,9.59
2024-03-31T08:50:00.401Z,9.77
2024-03-31T08:51:01.518Z,9.77
2024-03-31T08:52:00.770Z,9.77
2024-03-31T08:53:00.318Z,8.87
2024-03-31T08:54:00.331Z,8.87
2024-03-31T08:55:01.722Z,8.87
2024-03-31T08:56:00.291Z,8.39
2024-03-31T08:57:00.463Z,8.39
2024-03-31T08:58:00.315Z,8.39
2024-03-31T08:59:00.479Z,9.49
2024-03-31T09:00:00.304Z,9.49
2024-03-31T09:01:01.430Z,9.49
2024-03-31T09:02:00.697Z,8.30
2024-03-31T09:03:02.392Z,8.30
2024-03-31T09:04:00.686Z,8.30
2024-03-31T09:05:00.844Z,8.93
2024-03-31T09:06:00.320Z,8.93
2024-03-31T09:07:00.314Z,8.93
2024-03-31T09:08:00.366Z,9.10
2024-03-31T09:09:01.366Z,9.10
2024-03-31T09:10:01.971Z,9.10
2024-03-31T09:11:01.480Z,10.19
2024-03-31T09:12:00.596Z,10.19
2024-03-31T09:13:07.164Z,10.19
2024-03-31T09:14:00.298Z,10.07
2024-03-31T09:15:00.943Z,10.07
2024-03-31T09:16:00.492Z,10.07
2024-03-31T09:17:00.311Z,9.54
2024-03-31T09:18:00.327Z,9.54
2024-03-31T09:19:00.520Z,9.54
2024-03-31T09:20:01.436Z,9.44
2024-03-31T09:21:01.272Z,9.44
2024-03-31T09:22:00.493Z,9.44
2024-03-31T09:23:00.582Z,9.86
2024-03-31T09:24:00.342Z,9.86
2024-03-31T09:25:00.342Z,9.86
2024-03-31T09:26:00.540Z,9.17
2024-03-31T09:27:00.377Z,9.17
2024-03-31T09:28:00.330Z,9.17
2024-03-31T09:29:00.528Z,9.39
2024-03-31T09:30:00.715Z,9.39
2024-03-31T09:31:00.308Z,9.39
2024-03-31T09:40:02.737Z,11.12
2024-03-31T09:41:00.843Z,11.12
2024-03-31T09:42:00.570Z,11.12
2024-03-31T09:43:01.742Z,9.04
2024-03-31T09:44:00.574Z,9.04
2024-03-31T09:45:00.805Z,9.04
2024-03-31T09:46:00.375Z,10.11
2024-03-31T09:47:00.350Z,10.11
2024-03-31T09:48:17.778Z,10.11
2024-03-31T09:53:01.943Z,11.77
2024-03-31T09:54:01.468Z,11.77
2024-03-31T09:55:05.791Z,11.77
2024-03-31T10:00:01.578Z,10.55
2024-03-31T10:09:00.577Z,12.73
2024-03-31T10:10:01.489Z,12.73
2024-03-31T10:19:00.592Z,11.79
2024-03-31T10:20:01.926Z,11.79
2024-03-31T10:21:00.699Z,11.79
2024-03-31T10:22:00.341Z,13.50
2024-03-31T10:23:00.780Z,13.50
2024-03-31T10:24:01.009Z,13.50
2024-03-31T10:25:00.885Z,11.23
2024-03-31T10:26:03.114Z,11.23
2024-03-31T10:27:01.034Z,11.23
2024-03-31T10:28:01.071Z,11.35
2024-03-31T10:29:00.567Z,11.35
2024-03-31T10:30:00.614Z,11.35
2024-03-31T10:31:02.356Z,10.95
2024-03-31T10:32:00.518Z,10.95
2024-03-31T10:33:01.277Z,10.95
2024-03-31T10:34:00.418Z,10.74
2024-03-31T10:35:00.889Z,10.74
2024-03-31T10:45:01.383Z,12.52
2024-03-31T10:46:00.989Z,12.52
2024-03-31T10:47:00.383Z,12.52
2024-03-31T10:48:00.849Z,14.09
2024-03-31T10:49:00.881Z,14.09
2024-03-31T10:53:00.374Z,14.14
2024-03-31T10:54:26.417Z,14.14
2024-03-31T10:55:00.310Z,14.14
2024-03-31T10:56:03.234Z,13.37
2024-03-31T10:57:02.416Z,13.37
2024-03-31T10:58:00.659Z,13.37
2024-03-31T10:59:04.816Z,14.87
2024-03-31T11:00:00.851Z,14.87
2024-03-31T11:01:02.047Z,14.87
2024-03-31T11:02:20.738Z,12.25
2024-03-31T11:03:06.478Z,12.25
2024-03-31T11:04:15.025Z,12.25
2024-03-31T11:06:02.020Z,11.81
2024-03-31T11:07:02.948Z,11.81
2024-03-31T11:08:00.657Z,12.40
2024-03-31T11:09:00.345Z,12.40
2024-03-31T11:10:01.082Z,12.40
2024-03-31T11:11:01.115Z,12.90
2024-03-31T11:12:02.049Z,12.90
2024-03-31T11:13:00.369Z,12.90
2024-03-31T11:22:02.263Z,10.53
2024-03-31T11:25:00.760Z,10.37
2024-03-31T11:26:00.569Z,10.37
2024-03-31T11:27:01.400Z,10.37
2024-03-31T11:29:00.344Z,14.29
2024-03-31T11:30:00.737Z,14.29
2024-03-31T11:31:01.514Z,14.29
2024-03-31T11:32:00.428Z,14.29
2024-03-31T11:38:19.857Z,10.79
2024-03-31T11:39:00.376Z,10.79
2024-03-31T11:40:00.626Z,10.79
2024-03-31T11:45:00.438Z,8.58
2024-03-31T11:46:00.473Z,8.58
2024-03-31T11:48:00.932Z,13.80
2024-03-31T11:49:00.647Z,13.80
2024-03-31T11:59:00.307Z,12.29
2024-03-31T12:00:00.306Z,12.29
2024-03-31T12:05:00.671Z,12.19
2024-03-31T12:06:01.080Z,12.19
2024-03-31T12:07:00.498Z,12.19
2024-03-31T12:08:00.733Z,12.36
2024-03-31T12:09:00.386Z,12.36
2024-03-31T12:18:00.415Z,10.50
2024-03-31T12:19:00.389Z,10.50
2024-03-31T12:20:04.060Z,11.32
2024-03-31T12:21:00.516Z,11.32
2024-03-31T12:22:00.352Z,11.32
2024-03-31T12:23:01.085Z,11.32
2024-03-31T12:24:00.833Z,9.75
2024-03-31T12:25:00.679Z,9.75
2024-03-31T12:26:00.606Z,9.75
2024-03-31T12:27:00.945Z,9.49
2024-03-31T12:28:00.560Z,9.49
2024-03-31T12:29:00.297Z,9.49
2024-03-31T12:30:00.872Z,10.27
2024-03-31T12:31:00.477Z,10.27
2024-03-31T12:32:00.337Z,10.27
2024-03-31T12:33:00.330Z,12.13
2024-03-31T12:34:00.460Z,12.13
2024-03-31T12:35:00.389Z,12.13
2024-03-31T12:36:03.748Z,12.82
2024-03-31T12:37:00.557Z,12.82
2024-03-31T12:38:00.405Z,12.82
2024-03-31T12:39:00.355Z,11.96
2024-03-31T12:40:00.359Z,11.96
2024-03-31T12:41:00.689Z,11.96
2024-03-31T12:42:00.425Z,11.17
2024-03-31T12:43:00.394Z,11.17
2024-03-31T12:44:03.945Z,11.31
2024-03-31T12:45:00.289Z,11.31
2024-03-31T12:46:06.043Z,11.31
2024-03-31T12:47:00.417Z,11.31
2024-03-31T12:48:01.636Z,10.95
2024-03-31T12:49:03.313Z,10.95
2024-03-31T12:50:00.312Z,10.95
2024-03-31T12:51:00.354Z,11.35
2024-03-31T12:52:04.031Z,11.35
2024-03-31T12:53:04.911Z,11.35
2024-03-31T12:54:00.515Z,11.35
2024-03-31T12:55:07.778Z,11.35
2024-03-31T12:56:00.402Z,11.35
2024-03-31T12:57:00.582Z,12.20
2024-03-31T12:58:00.316Z,12.20
2024-03-31T12:59:01.321Z,12.20
2024-03-31T13:00:01.897Z,11.33
2024-03-31T13:01:00.348Z,11.33
2024-03-31T13:02:00.371Z,11.33
2024-03-31T13:03:00.363Z,14.63
2024-03-31T13:04:00.322Z,14.63
2024-03-31T13:05:01.257Z,14.63
2024-03-31T13:06:02.783Z,12.92
2024-03-31T13:07:00.318Z,12.92
2024-03-31T13:08:00.353Z,12.92
2024-03-31T13:09:00.322Z,16.84
2024-03-31T13:10:01.041Z,16.84
2024-03-31T13:11:00.659Z,16.84
2024-03-31T13:12:00.710Z,13.69
2024-03-31T13:13:01.901Z,13.69
2024-03-31T13:14:00.573Z,13.69
2024-03-31T13:15:01.019Z,14.49
2024-03-31T13:16:00.360Z,14.49
2024-03-31T13:17:00.321Z,14.49
2024-03-31T13:18:00.294Z,12.39
2024-03-31T13:19:00.304Z,12.39
2024-03-31T13:20:00.302Z,12.39
2024-03-31T13:21:00.577Z,14.62
2024-03-31T13:22:00.360Z,14.62
2024-03-31T13:23:00.329Z,14.62
2024-03-31T13:24:00.288Z,14.20
2024-03-31T13:25:00.358Z,14.20
2024-03-31T13:26:00.396Z,14.20
2024-03-31T13:27:00.315Z,12.37
2024-03-31T13:28:00.371Z,12.37
2024-03-31T13:29:00.293Z,12.37
2024-03-31T13:30:00.318Z,13.89
2024-03-31T13:31:00.305Z,13.89
2024-03-31T13:32:00.329Z,13.89
2024-03-31T13:33:00.316Z,12.86
2024-03-31T13:34:00.317Z,12.86
2024-03-31T13:35:00.381Z,12.86
2024-03-31T13:36:00.413Z,12.86
2024-03-31T13:37:00.478Z,12.86
2024-03-31T13:38:00.325Z,12.86
2024-03-31T13:39:00.307Z,12.86
2024-03-31T13:40:00.302Z,12.86
2024-03-31T13:41:01.426Z,12.86
2024-03-31T13:42:00.331Z,11.23
2024-03-31T13:43:00.351Z,11.23
2024-03-31T13:44:00.412Z,11.23
2024-03-31T13:45:00.313Z,13.90
2024-03-31T13:46:00.290Z,13.90
2024-03-31T13:47:00.300Z,13.90
2024-03-31T13:48:00.395Z,13.90
2024-03-31T13:49:00.324Z,13.90
2024-03-31T13:50:00.327Z,13.90
2024-03-31T13:51:00.315Z,11.91
2024-03-31T13:52:00.306Z,11.91
2024-03-31T13:53:00.353Z,11.91
2024-03-31T13:54:00.316Z,13.89
2024-03-31T13:55:00.314Z,13.89
2024-03-31T13:56:00.400Z,13.89
2024-03-31T13:57:00.320Z,13.12
2024-03-31T13:58:00.312Z,13.12
2024-03-31T13:59:00.368Z,13.12
2024-03-31T14:00:00.716Z,14.37
2024-03-31T14:01:00.957Z,14.37
2024-03-31T14:02:00.306Z,14.37
2024-03-31T14:03:00.326Z,14.63
2024-03-31T14:04:00.341Z,14.63
2024-03-31T14:05:00.296Z,14.63
2024-03-31T14:06:00.316Z,11.71
2024-03-31T14:07:00.281Z,11.71
2024-03-31T14:08:00.294Z,11.71
2024-03-31T14:09:00.339Z,11.71
2024-03-31T14:10:00.393Z,11.71
2024-03-31T14:11:00.307Z,11.71
2024-03-31T14:12:00.344Z,12.49
2024-03-31T14:13:00.306Z,12.49
2024-03-31T14:14:00.298Z,12.49
2024-03-31T14:15:00.361Z,13.58
2024-03-31T14:16:00.320Z,13.58
2024-03-31T14:17:00.310Z,13.58
2024-03-31T14:18:01.195Z,13.31
2024-03-31T14:19:00.280Z,13.31
2024-03-31T14:20:00.305Z,13.31
2024-03-31T14:21:01.496Z,13.31
2024-03-31T14:22:00.471Z,13.31
2024-03-31T14:23:00.533Z,13.31
2024-03-31T14:24:00.376Z,11.32
2024-03-31T14:25:00.374Z,11.32